Time;durP1;ratioP1;P1;durP2;ratioP2;P2;SDS_P1;SDS_P2;PMS_P1;PMS_P2;Temp;Humidity;BMP_temperature;BMP_pressure;BME280_temperature;BME280_humidity;BME280_pressure;Samples;Min_cycle;Max_cycle;Signal;HPM_P1;HPM_P2
2022/11/28 00:01:55;;;;;;;7.25;4.03;;;6.70;99.90;;;;;;5021367;28;20074;-64
2022/11/28 00:04:21;;;;;;;6.57;3.88;;;6.70;99.90;;;;;;5009842;28;20029;-64
2022/11/28 00:06:49;;;;;;;8.32;3.38;;;6.60;99.90;;;;;;5003296;28;20087;-64
2022/11/28 00:09:18;;;;;;;6.65;3.40;;;6.60;99.90;;;;;;4994874;28;20022;-64
2022/11/28 00:11:46;;;;;;;5.82;3.05;;;6.70;99.90;;;;;;5001514;28;20109;-64
2022/11/28 00:14:14;;;;;;;7.30;3.47;;;6.60;99.90;;;;;;4994698;28;20172;-64
2022/11/28 00:16:39;;;;;;;6.22;3.15;;;6.60;99.90;;;;;;5003276;28;20037;-64
2022/11/28 00:19:06;;;;;;;9.00;3.05;;;6.50;99.90;;;;;;4994407;28;20031;-64
2022/11/28 00:21:33;;;;;;;8.63;3.55;;;6.50;99.90;;;;;;5001587;28;20033;-64
2022/11/28 00:23:59;;;;;;;5.18;2.33;;;6.50;99.90;;;;;;4994535;28;20134;-64
2022/11/28 00:26:43;;;;;;;6.28;3.15;;;6.40;99.90;;;;;;5003016;28;20044;-64
2022/11/28 00:29:10;;;;;;;4.90;3.13;;;6.40;99.90;;;;;;4994411;28;20073;-64
2022/11/28 00:31:43;;;;;;;9.27;2.90;;;6.40;99.90;;;;;;5001236;28;20022;-64
2022/11/28 00:34:14;;;;;;;6.32;3.00;;;6.30;99.90;;;;;;4994637;28;20069;-64
2022/11/28 00:36:41;;;;;;;8.15;2.75;;;6.30;99.90;;;;;;5002897;28;20080;-64
2022/11/28 00:39:07;;;;;;;6.57;2.38;;;6.30;99.90;;;;;;4994397;28;20039;-64
2022/11/28 00:41:34;;;;;;;4.85;2.33;;;6.30;99.90;;;;;;5002480;28;20037;-64
2022/11/28 00:44:00;;;;;;;3.70;2.10;;;6.30;99.90;;;;;;4994125;28;20051;-64
2022/11/28 00:46:27;;;;;;;4.65;2.55;;;6.30;99.90;;;;;;4999223;28;20026;-64
2022/11/28 00:48:53;;;;;;;5.05;3.00;;;6.30;99.90;;;;;;4983637;28;20042;-64
2022/11/28 00:51:24;;;;;;;8.98;2.80;;;6.30;99.90;;;;;;5002517;28;20041;-64
2022/11/28 00:53:53;;;;;;;6.15;2.63;;;6.30;99.90;;;;;;4994484;28;20038;-64
2022/11/28 00:56:23;;;;;;;5.13;2.45;;;6.30;99.90;;;;;;4991616;28;20438;-65
2022/11/28 00:58:49;;;;;;;4.60;2.60;;;6.30;99.90;;;;;;4983528;28;20038;-64
2022/11/28 01:01:24;;;;;;;4.18;2.13;;;6.30;99.90;;;;;;5002041;28;20284;-64
2022/11/28 01:03:52;;;;;;;7.40;2.65;;;6.30;99.90;;;;;;4997320;28;20094;-64
2022/11/28 01:06:29;;;;;;;4.05;2.17;;;6.20;99.90;;;;;;5006401;28;20093;-64
2022/11/28 01:08:59;;;;;;;7.18;2.67;;;6.20;99.90;;;;;;4983610;28;20039;-64
2022/11/28 01:11:25;;;;;;;6.82;2.08;;;6.20;99.90;;;;;;5002131;28;20395;-64
2022/11/28 01:13:54;;;;;;;4.50;2.58;;;6.10;99.90;;;;;;4994144;28;20038;-64
2022/11/28 01:16:20;;;;;;;6.63;2.90;;;6.10;99.90;;;;;;5002514;28;20053;-65
2022/11/28 01:18:46;;;;;;;5.38;2.35;;;6.00;99.90;;;;;;4994275;28;20512;-64
2022/11/28 01:21:13;;;;;;;4.45;2.45;;;6.00;99.90;;;;;;5001246;28;20042;-64
2022/11/28 01:23:39;;;;;;;6.35;2.60;;;6.00;99.90;;;;;;4997055;28;20165;-64
2022/11/28 01:26:07;;;;;;;4.30;2.03;;;6.00;99.90;;;;;;4999257;28;20429;-64
2022/11/28 01:28:34;;;;;;;6.55;2.53;;;6.00;99.90;;;;;;4998768;28;20031;-63
2022/11/28 01:31:06;;;;;;;6.63;2.03;;;6.00;99.90;;;;;;4996409;28;20566;-64
2022/11/28 01:33:32;;;;;;;2.15;1.83;;;6.00;99.90;;;;;;4999670;28;20038;-64
2022/11/28 01:35:58;;;;;;;4.35;2.05;;;6.00;99.90;;;;;;4997453;28;20093;-64
2022/11/28 01:38:25;;;;;;;4.05;1.50;;;6.00;99.90;;;;;;5001051;28;20019;-64
2022/11/28 01:40:51;;;;;;;9.45;2.25;;;6.00;99.90;;;;;;4995459;28;20038;-64
2022/11/28 01:43:17;;;;;;;2.13;1.70;;;6.00;99.90;;;;;;4986685;28;20031;-64
2022/11/28 01:45:43;;;;;;;4.60;1.90;;;6.00;99.90;;;;;;4994606;28;20050;-64
2022/11/28 01:48:16;;;;;;;2.72;1.70;;;6.00;99.90;;;;;;5005457;28;20122;-64
2022/11/28 01:50:46;;;;;;;5.25;2.17;;;6.00;99.90;;;;;;4997564;28;20038;-63
2022/11/28 01:53:12;;;;;;;4.83;1.93;;;6.00;99.90;;;;;;5005783;28;20022;-63
2022/11/28 01:56:13;;;;;;;5.20;2.67;;;6.10;99.90;;;;;;5012440;28;20026;-64
2022/11/28 01:58:49;;;;;;;5.67;1.90;;;6.00;99.90;;;;;;4971616;28;20050;-64
2022/11/28 02:01:17;;;;;;;4.18;1.73;;;6.00;99.90;;;;;;5003469;28;20037;-64
2022/11/28 02:03:46;;;;;;;4.45;1.88;;;6.00;99.90;;;;;;5000939;28;20039;-64
2022/11/28 02:06:15;;;;;;;4.18;2.25;;;6.00;99.90;;;;;;4985282;28;20061;-64
2022/11/28 02:08:41;;;;;;;5.00;2.50;;;6.00;99.90;;;;;;4988855;28;20398;-63
2022/11/28 02:11:51;;;;;;;4.25;2.00;;;6.00;99.90;;;;;;4998445;28;20031;-64
2022/11/28 02:15:01;;;;;;;2.20;1.45;;;5.90;99.90;;;;;;4996570;28;20037;-64
2022/11/28 02:18:18;;;;;;;2.88;1.92;;;5.90;99.90;;;;;;4950809;28;20039;-64
2022/11/28 02:21:33;;;;;;;5.57;2.72;;;5.80;99.90;;;;;;4997204;28;20177;-64
2022/11/28 02:24:25;;;;;;;3.33;1.85;;;5.80;99.90;;;;;;4983357;28;20088;-64
2022/11/28 02:27:34;;;;;;;4.93;2.35;;;5.70;99.90;;;;;;5005201;28;20034;-64
2022/11/28 02:30:15;;;;;;;4.90;2.85;;;5.70;99.90;;;;;;4995274;28;20038;-63
2022/11/28 02:33:18;;;;;;;7.28;2.50;;;5.70;99.90;;;;;;5008321;28;20167;-64
2022/11/28 02:36:22;;;;;;;4.93;2.67;;;5.60;99.90;;;;;;4997304;28;20057;-64
2022/11/28 02:39:06;;;;;;;4.82;2.78;;;5.60;99.90;;;;;;4974524;28;20039;-64
2022/11/28 02:42:01;;;;;;;6.85;2.75;;;5.50;99.90;;;;;;5009794;28;20093;-64
2022/11/28 02:44:42;;;;;;;4.38;2.03;;;5.50;99.90;;;;;;4995972;28;20029;-64
2022/11/28 02:47:17;;;;;;;7.28;2.92;;;5.50;99.90;;;;;;5003351;28;20147;-64
2022/11/28 02:49:53;;;;;;;3.92;2.38;;;5.50;99.90;;;;;;5002801;28;20049;-63
2022/11/28 02:52:41;;;;;;;10.43;4.78;;;5.50;99.90;;;;;;4995924;28;20030;-63
2022/11/28 02:55:07;;;;;;;4.63;2.47;;;5.50;99.90;;;;;;5000395;28;20034;-64
2022/11/28 02:57:40;;;;;;;6.70;2.60;;;5.50;99.90;;;;;;5006594;28;20077;-64
2022/11/28 03:00:26;;;;;;;5.63;3.38;;;5.60;99.90;;;;;;5000443;28;20464;-64
2022/11/28 03:03:23;;;;;;;3.53;2.05;;;5.50;99.90;;;;;;5007885;28;20038;-63
2022/11/28 03:06:17;;;;;;;3.10;2.25;;;5.50;99.90;;;;;;4996436;28;20023;-64
2022/11/28 03:09:16;;;;;;;7.45;3.42;;;5.50;99.90;;;;;;4979956;28;20569;-64
2022/11/28 03:12:29;;;;;;;8.02;3.30;;;5.50;99.90;;;;;;4973039;28;20063;-64
2022/11/28 03:15:00;;;;;;;4.22;1.98;;;5.50;99.90;;;;;;4975676;28;20046;-64
2022/11/28 03:18:10;;;;;;;5.50;2.55;;;5.50;99.90;;;;;;4990083;28;20046;-64
2022/11/28 03:20:47;;;;;;;6.43;3.10;;;5.50;99.90;;;;;;4995204;28;20042;-64
2022/11/28 03:23:34;;;;;;;6.88;3.17;;;5.40;99.90;;;;;;4993360;28;20091;-64
2022/11/28 03:26:12;;;;;;;3.67;2.33;;;5.50;99.90;;;;;;5002828;28;20033;-64
2022/11/28 03:28:42;;;;;;;4.57;2.42;;;5.50;99.90;;;;;;5003072;28;20563;-64
2022/11/28 03:31:38;;;;;;;9.82;4.28;;;5.40;99.90;;;;;;5003340;28;20065;-64
2022/11/28 03:34:08;;;;;;;7.03;3.90;;;5.50;99.90;;;;;;4987865;28;20583;-64
2022/11/28 03:36:41;;;;;;;3.43;2.20;;;5.50;99.90;;;;;;5005099;28;20033;-64
2022/11/28 03:39:16;;;;;;;7.47;3.35;;;5.50;99.90;;;;;;5000966;28;20038;-64
2022/11/28 03:41:55;;;;;;;8.90;4.35;;;5.50;99.90;;;;;;5006030;28;20030;-65
2022/11/28 03:44:34;;;;;;;7.55;3.67;;;5.40;99.90;;;;;;4998612;28;20486;-64
2022/11/28 03:47:03;;;;;;;3.35;2.40;;;5.40;99.90;;;;;;5007732;28;20041;-64
2022/11/28 03:49:38;;;;;;;5.85;2.50;;;5.40;99.90;;;;;;5014515;28;20077;-65
2022/11/28 03:52:10;;;;;;;6.95;3.60;;;5.40;99.90;;;;;;5006907;28;20025;-65
2022/11/28 03:55:06;;;;;;;6.95;3.30;;;5.30;99.90;;;;;;4994319;28;20026;-65
2022/11/28 03:57:47;;;;;;;6.60;2.90;;;5.40;99.90;;;;;;4972208;28;20022;-64
2022/11/28 04:00:14;;;;;;;6.68;3.40;;;5.40;99.90;;;;;;5001289;28;20115;-64
2022/11/28 04:02:55;;;;;;;4.97;2.33;;;5.40;99.90;;;;;;4999897;28;20026;-63
2022/11/28 04:05:47;;;;;;;5.45;3.60;;;5.30;99.90;;;;;;4991234;28;20045;-63
2022/11/28 04:08:25;;;;;;;7.75;2.55;;;5.30;99.90;;;;;;4987608;28;20037;-63
2022/11/28 04:11:12;;;;;;;7.00;3.17;;;5.30;99.90;;;;;;5001323;28;20041;-63
2022/11/28 04:14:08;;;;;;;5.50;2.80;;;5.30;99.90;;;;;;4996767;28;20033;-63
2022/11/28 04:16:52;;;;;;;9.52;3.28;;;5.20;99.90;;;;;;4997575;28;20042;-63
2022/11/28 04:19:40;;;;;;;4.85;1.98;;;5.20;99.90;;;;;;4998720;28;20035;-63
2022/11/28 04:22:31;;;;;;;10.32;2.95;;;5.10;99.90;;;;;;5007412;28;20112;-63
2022/11/28 04:25:04;;;;;;;4.57;2.42;;;5.10;99.90;;;;;;4996461;28;20397;-64
2022/11/28 04:27:44;;;;;;;10.20;4.18;;;5.00;99.90;;;;;;5001849;28;20600;-64
2022/11/28 04:30:11;;;;;;;9.27;2.90;;;5.10;99.90;;;;;;5015471;28;20696;-64
2022/11/28 04:32:46;;;;;;;12.90;2.95;;;5.10;99.90;;;;;;5003970;28;20035;-64
2022/11/28 04:35:21;;;;;;;5.72;2.67;;;5.10;99.90;;;;;;5000873;28;20034;-64
2022/11/28 04:37:49;;;;;;;5.72;2.72;;;5.10;99.90;;;;;;4999051;28;20114;-64
2022/11/28 04:40:17;;;;;;;8.02;2.55;;;5.10;99.90;;;;;;5002323;28;20029;-63
2022/11/28 04:42:48;;;;;;;3.05;2.08;;;5.10;99.90;;;;;;5003203;28;20150;-64
2022/11/28 04:45:21;;;;;;;5.50;2.80;;;5.10;99.90;;;;;;5001110;28;20395;-64
2022/11/28 04:47:47;;;;;;;3.60;2.20;;;5.10;99.90;;;;;;5002368;28;20047;-63
2022/11/28 04:50:13;;;;;;;4.53;2.47;;;5.10;99.90;;;;;;5000587;28;20061;-65
2022/11/28 04:52:52;;;;;;;4.53;2.80;;;5.20;99.90;;;;;;4999550;28;20747;-64
2022/11/28 04:55:32;;;;;;;4.13;2.40;;;5.20;99.90;;;;;;4990207;28;20026;-64
2022/11/28 04:58:17;;;;;;;4.82;2.30;;;5.20;99.90;;;;;;4987424;28;20363;-64
2022/11/28 05:00:44;;;;;;;4.68;2.03;;;5.10;99.90;;;;;;5002323;28;20036;-64
2022/11/28 05:03:10;;;;;;;4.60;2.63;;;5.10;99.90;;;;;;5000972;28;20034;-64
2022/11/28 05:05:44;;;;;;;4.95;2.53;;;5.10;99.90;;;;;;5001216;28;20075;-64
2022/11/28 05:08:10;;;;;;;6.22;2.78;;;5.00;99.90;;;;;;5000804;28;20042;-64
2022/11/28 05:10:36;;;;;;;8.73;3.38;;;5.00;99.90;;;;;;5000672;28;20033;-64
2022/11/28 05:13:02;;;;;;;5.60;3.38;;;5.00;99.90;;;;;;4996256;28;20031;-65
2022/11/28 05:15:28;;;;;;;6.05;3.28;;;5.00;99.90;;;;;;5001082;28;20057;-65
2022/11/28 05:17:54;;;;;;;4.35;2.28;;;5.00;99.90;;;;;;4995930;28;20054;-63
2022/11/28 05:20:19;;;;;;;8.27;3.08;;;5.00;99.90;;;;;;5001938;28;20041;-63
2022/11/28 05:22:45;;;;;;;3.05;2.30;;;4.90;99.90;;;;;;4999883;28;20035;-63
2022/11/28 05:25:11;;;;;;;7.90;2.97;;;4.90;99.90;;;;;;4995930;28;20080;-64
2022/11/28 05:27:36;;;;;;;7.22;3.10;;;4.90;99.90;;;;;;4990584;28;20525;-62
2022/11/28 05:30:05;;;;;;;4.65;2.55;;;4.90;99.90;;;;;;4992605;28;20038;-63
2022/11/28 05:32:31;;;;;;;3.90;2.90;;;4.90;99.90;;;;;;4986943;28;20484;-64
2022/11/28 05:34:57;;;;;;;5.18;2.72;;;4.90;99.90;;;;;;5000149;28;20497;-63
2022/11/28 05:37:24;;;;;;;7.20;3.55;;;4.80;99.90;;;;;;5007130;28;20037;-64
2022/11/28 05:39:50;;;;;;;6.57;3.13;;;4.80;99.90;;;;;;4998634;28;20026;-64
2022/11/28 05:42:16;;;;;;;5.78;2.92;;;4.80;99.90;;;;;;4974498;28;20386;-64
2022/11/28 05:44:42;;;;;;;5.97;2.90;;;5.10;99.90;;;;;;4994314;28;20034;-63
2022/11/28 05:47:08;;;;;;;5.00;2.40;;;5.20;99.90;;;;;;4992016;28;20045;-63
2022/11/28 05:49:33;;;;;;;3.60;2.30;;;5.20;99.90;;;;;;4996047;28;20042;-63
2022/11/28 05:51:59;;;;;;;4.22;2.95;;;5.10;99.90;;;;;;5010302;28;20084;-63
2022/11/28 05:54:25;;;;;;;9.00;3.42;;;5.00;99.90;;;;;;5010460;22;20647;-60
2022/11/28 05:56:51;;;;;;;5.90;2.97;;;4.90;99.90;;;;;;5026003;28;20032;-60
2022/11/28 05:59:16;;;;;;;4.90;2.85;;;5.10;99.90;;;;;;5028194;28;20053;-61
2022/11/28 06:01:42;;;;;;;3.80;2.63;;;5.00;99.90;;;;;;5024274;28;20033;-61
2022/11/28 06:04:08;;;;;;;4.28;3.05;;;5.10;99.90;;;;;;5024564;28;20386;-63
2022/11/28 06:06:35;;;;;;;3.00;2.13;;;5.00;99.90;;;;;;5024362;28;20053;-61
2022/11/28 06:09:02;;;;;;;5.95;2.13;;;4.90;99.90;;;;;;5023145;28;20019;-61
2022/11/28 06:11:30;;;;;;;5.90;2.90;;;4.90;99.90;;;;;;5024456;28;20053;-61
2022/11/28 06:13:55;;;;;;;6.18;3.25;;;4.90;99.90;;;;;;5027363;28;20026;-61
2022/11/28 06:16:25;;;;;;;5.93;2.90;;;4.90;99.90;;;;;;5022926;28;20034;-61
2022/11/28 06:18:57;;;;;;;6.13;3.38;;;4.90;99.90;;;;;;5012132;28;20363;-62
2022/11/28 06:21:24;;;;;;;4.40;2.45;;;5.00;99.90;;;;;;5013148;28;20489;-62
2022/11/28 06:23:50;;;;;;;4.13;3.05;;;5.00;99.90;;;;;;5011385;28;20048;-61
2022/11/28 06:26:20;;;;;;;6.20;3.35;;;5.00;99.90;;;;;;4962586;28;20071;-62
2022/11/28 06:28:46;;;;;;;9.18;3.83;;;5.10;99.90;;;;;;5028925;28;20041;-62
2022/11/28 06:31:21;;;;;;;4.28;2.20;;;5.00;99.90;;;;;;5014497;28;20040;-63
2022/11/28 06:33:48;;;;;;;4.72;2.67;;;5.10;99.90;;;;;;5014878;28;20514;-62
2022/11/28 06:36:15;;;;;;;4.80;2.20;;;5.00;99.90;;;;;;5008688;28;20116;-63
2022/11/28 06:38:41;;;;;;;6.25;3.28;;;5.10;99.90;;;;;;5005005;28;22076;-63
2022/11/28 06:41:11;;;;;;;3.42;2.25;;;5.10;99.90;;;;;;5008947;28;20029;-62
2022/11/28 06:43:37;;;;;;;6.68;3.15;;;5.10;99.90;;;;;;5003927;28;20049;-63
2022/11/28 06:46:03;;;;;;;4.60;2.28;;;5.30;99.90;;;;;;5001516;28;20040;-61
2022/11/28 06:48:29;;;;;;;4.20;1.95;;;5.30;99.90;;;;;;5006600;28;20042;-63
2022/11/28 06:51:05;;;;;;;6.32;3.25;;;5.40;99.90;;;;;;5018316;28;20132;-63
2022/11/28 06:53:32;;;;;;;8.02;3.92;;;5.40;99.90;;;;;;5022206;28;20033;-62
2022/11/28 06:56:12;;;;;;;7.55;3.63;;;5.40;99.90;;;;;;5021500;28;20049;-62
2022/11/28 06:58:39;;;;;;;4.82;2.25;;;5.30;99.90;;;;;;5026777;28;20072;-62
2022/11/28 07:01:18;;;;;;;3.45;2.55;;;5.40;99.90;;;;;;5016433;28;20113;-62
2022/11/28 07:03:45;;;;;;;6.15;2.60;;;5.50;99.90;;;;;;5004164;28;20486;-62
2022/11/28 07:06:12;;;;;;;9.25;3.00;;;5.50;99.90;;;;;;5015721;28;20053;-62
2022/11/28 07:08:38;;;;;;;6.40;2.92;;;5.60;99.90;;;;;;5025314;28;20033;-63
2022/11/28 07:11:20;;;;;;;5.43;3.03;;;5.70;99.90;;;;;;5021280;28;20042;-64
2022/11/28 07:13:46;;;;;;;;;;;5.70;99.90;;;;;;5001765;28;20101;-62
2022/11/28 07:16:22;;;;;;;5.15;2.42;;;5.70;99.90;;;;;;5014499;28;20338;-63
2022/11/28 07:18:49;;;;;;;7.45;2.70;;;5.70;99.90;;;;;;5012747;28;20026;-63
2022/11/28 07:21:16;;;;;;;5.75;3.17;;;5.60;99.90;;;;;;5010379;28;20045;-63
2022/11/28 07:23:43;;;;;;;4.72;3.08;;;5.50;99.90;;;;;;5010620;28;20107;-63
2022/11/28 07:26:11;;;;;;;9.50;4.05;;;5.50;99.90;;;;;;5010609;28;20084;-63
2022/11/28 07:28:37;;;;;;;9.07;3.28;;;5.50;99.90;;;;;;5010591;28;20041;-63
2022/11/28 07:31:19;;;;;;;4.55;2.97;;;5.50;99.90;;;;;;5012565;28;20030;-63
2022/11/28 07:33:48;;;;;;;5.82;3.10;;;5.60;99.90;;;;;;5002431;28;20081;-63
2022/11/28 07:36:23;;;;;;;5.97;2.92;;;5.60;99.90;;;;;;5012660;28;20040;-63
2022/11/28 07:38:53;;;;;;;12.85;3.47;;;5.60;99.90;;;;;;5046217;28;20035;-63
2022/11/28 07:41:20;;;;;;;6.32;3.88;;;5.60;99.90;;;;;;5019232;28;20103;-63
2022/11/28 07:43:48;;;;;;;15.73;3.22;;;5.60;99.90;;;;;;5015454;28;20037;-63
2022/11/28 07:46:16;;;;;;;4.80;2.60;;;5.50;99.90;;;;;;4987307;28;20046;-63
2022/11/28 07:48:43;;;;;;;6.15;2.75;;;5.60;99.90;;;;;;4997316;28;20041;-63
2022/11/28 07:51:17;;;;;;;10.00;3.35;;;5.60;99.90;;;;;;5013923;28;20111;-63
2022/11/28 07:53:44;;;;;;;5.40;3.80;;;5.60;99.90;;;;;;5026306;28;20569;-63
2022/11/28 07:56:20;;;;;;;8.73;4.25;;;5.70;99.90;;;;;;5013572;28;20401;-63
2022/11/28 07:58:46;;;;;;;11.20;3.88;;;5.70;99.90;;;;;;5021525;28;20053;-63
2022/11/28 08:01:25;;;;;;;6.45;3.35;;;5.70;99.90;;;;;;5019609;28;20082;-63
2022/11/28 08:03:51;;;;;;;6.90;3.88;;;5.90;99.90;;;;;;5021304;28;20037;-63
2022/11/28 08:06:23;;;;;;;5.30;2.88;;;5.90;99.90;;;;;;5020314;28;20033;-63
2022/11/28 08:08:51;;;;;;;6.22;3.38;;;5.90;99.90;;;;;;5021197;28;20037;-63
2022/11/28 08:11:20;;;;;;;6.72;2.97;;;5.90;99.90;;;;;;5020705;28;20037;-63
2022/11/28 08:13:46;;;;;;;8.18;4.05;;;5.90;99.90;;;;;;5037243;28;20047;-63
2022/11/28 08:16:15;;;;;;;6.80;2.60;;;5.90;99.90;;;;;;5025423;28;20531;-65
2022/11/28 08:18:42;;;;;;;5.68;2.67;;;5.90;99.90;;;;;;5017220;28;20034;-64
2022/11/28 08:21:18;;;;;;;7.07;3.83;;;5.90;99.90;;;;;;5027819;28;20041;-62
2022/11/28 08:23:46;;;;;;;6.25;3.45;;;5.90;99.90;;;;;;5017301;28;20065;-63
2022/11/28 08:26:15;;;;;;;8.10;3.63;;;6.00;99.90;;;;;;5021191;28;20034;-65
2022/11/28 08:28:42;;;;;;;14.15;3.50;;;6.00;99.90;;;;;;5027745;28;20041;-62
2022/11/28 08:31:10;;;;;;;6.90;3.08;;;6.10;99.90;;;;;;5019360;28;20060;-62
2022/11/28 08:33:36;;;;;;;12.02;3.85;;;6.10;99.90;;;;;;5029546;28;20489;-64
2022/11/28 08:36:07;;;;;;;10.90;3.40;;;6.10;99.90;;;;;;5008478;28;20385;-62
2022/11/28 08:38:33;;;;;;;8.68;4.20;;;6.20;99.90;;;;;;5010519;28;20029;-62
2022/11/28 08:41:09;;;;;;;8.20;3.85;;;6.20;99.90;;;;;;5016055;28;20048;-62
2022/11/28 08:43:36;;;;;;;4.90;2.63;;;6.30;99.90;;;;;;5028918;28;20116;-62
2022/11/28 08:46:09;;;;;;;8.15;3.60;;;6.40;99.90;;;;;;5018616;28;20058;-62
2022/11/28 08:48:36;;;;;;;7.43;3.95;;;6.40;99.90;;;;;;5027972;28;20025;-62
2022/11/28 08:51:03;;;;;;;9.73;4.28;;;6.40;99.90;;;;;;5018229;28;20401;-62
2022/11/28 08:53:29;;;;;;;6.95;3.13;;;6.40;99.90;;;;;;5018024;28;20544;-62
2022/11/28 08:55:56;;;;;;;8.05;3.85;;;6.40;99.90;;;;;;5018566;28;20505;-62
2022/11/28 08:58:21;;;;;;;6.45;2.88;;;6.50;99.90;;;;;;5034344;28;20040;-62
2022/11/28 09:00:47;;;;;;;7.97;3.30;;;6.50;99.90;;;;;;5021840;28;20076;-62
2022/11/28 09:03:16;;;;;;;7.63;3.28;;;6.50;99.90;;;;;;5020465;28;20112;-63
2022/11/28 09:05:45;;;;;;;7.82;3.00;;;6.50;99.90;;;;;;5021860;28;20046;-62
2022/11/28 09:08:16;;;;;;;8.27;4.80;;;6.50;99.90;;;;;;5031863;28;20036;-63
2022/11/28 09:10:46;;;;;;;14.10;4.30;;;6.60;99.90;;;;;;5022460;28;20045;-62
2022/11/28 09:13:13;;;;;;;10.82;4.13;;;6.60;99.90;;;;;;5033052;28;20121;-63
2022/11/28 09:15:44;;;;;;;9.15;4.45;;;6.60;99.90;;;;;;5023341;28;20441;-62
2022/11/28 09:18:13;;;;;;;12.73;4.13;;;6.60;99.90;;;;;;5013333;28;20061;-63
2022/11/28 09:20:39;;;;;;;11.43;4.38;;;6.60;99.90;;;;;;5029869;28;20486;-63
2022/11/28 09:23:06;;;;;;;8.82;4.68;;;6.70;99.90;;;;;;5013496;28;20033;-63
2022/11/28 09:25:35;;;;;;;14.13;4.85;;;6.70;99.90;;;;;;5016248;28;20116;-63
2022/11/28 09:28:00;;;;;;;8.18;3.97;;;6.70;99.90;;;;;;4999067;28;20040;-63
2022/11/28 09:30:27;;;;;;;6.93;3.42;;;6.70;99.90;;;;;;5023430;28;20388;-63
2022/11/28 09:32:53;;;;;;;6.90;3.50;;;6.80;99.90;;;;;;5025613;28;20034;-63
2022/11/28 09:35:18;;;;;;;10.25;4.60;;;6.90;99.90;;;;;;5021841;28;20113;-63
2022/11/28 09:37:44;;;;;;;5.10;3.22;;;6.90;99.90;;;;;;5025287;28;20092;-63
2022/11/28 09:40:26;;;;;;;5.25;3.13;;;6.90;99.90;;;;;;5028912;28;20090;-63
2022/11/28 09:42:52;;;;;;;7.97;3.67;;;6.90;99.90;;;;;;5018924;28;20025;-63
2022/11/28 09:45:21;;;;;;;10.45;4.13;;;6.90;99.90;;;;;;5014518;28;20079;-62
2022/11/28 09:47:55;;;;;;;6.53;3.25;;;6.90;99.90;;;;;;5022178;28;20420;-62
2022/11/28 09:50:25;;;;;;;12.35;4.50;;;6.90;99.90;;;;;;5009435;28;20030;-62
2022/11/28 09:53:20;;;;;;;5.78;3.58;;;7.00;99.90;;;;;;5017904;28;20572;-62
2022/11/28 09:56:03;;;;;;;7.97;4.05;;;7.00;99.90;;;;;;5014737;28;20108;-62
2022/11/28 09:59:02;;;;;;;5.47;3.80;;;7.00;99.90;;;;;;5013902;28;20034;-63
2022/11/28 10:01:49;;;;;;;12.73;4.45;;;7.10;99.90;;;;;;5001877;28;20498;-63
2022/11/28 10:04:36;;;;;;;25.52;7.70;;;7.20;99.90;;;;;;5000256;28;20061;-62
2022/11/28 10:07:21;;;;;;;10.73;4.63;;;7.20;99.90;;;;;;5009594;28;20520;-63
2022/11/28 10:10:19;;;;;;;10.20;4.25;;;7.20;99.90;;;;;;5003538;28;20037;-63
2022/11/28 10:13:19;;;;;;;6.82;3.20;;;7.10;99.90;;;;;;5005622;28;20064;-63
2022/11/28 10:15:45;;;;;;;8.55;3.22;;;7.10;99.90;;;;;;4999160;28;20386;-63
2022/11/28 10:18:35;;;;;;;9.95;4.65;;;7.10;99.90;;;;;;5010219;28;20381;-63
2022/11/28 10:21:22;;;;;;;6.50;3.35;;;7.10;99.90;;;;;;5009056;28;20022;-63
2022/11/28 10:23:51;;;;;;;5.00;3.40;;;7.20;99.90;;;;;;5001827;28;20041;-63
2022/11/28 10:26:38;;;;;;;8.32;4.18;;;7.30;99.90;;;;;;5011063;28;20037;-63
2022/11/28 10:29:57;;;;;;;9.02;3.83;;;7.20;99.90;;;;;;5005848;28;20030;-63
2022/11/28 10:32:41;;;;;;;17.77;3.65;;;7.10;99.90;;;;;;4998431;28;20397;-63
2022/11/28 10:35:24;;;;;;;6.35;3.80;;;7.20;99.90;;;;;;5005599;28;20485;-63
2022/11/28 10:37:52;;;;;;;7.13;3.88;;;7.20;99.90;;;;;;5007966;28;20046;-66
2022/11/28 10:40:54;;;;;;;12.63;4.32;;;7.20;99.90;;;;;;5008048;28;20028;-64
2022/11/28 10:43:58;;;;;;;;;;;7.20;99.90;;;;;;5025367;28;20110;-63
2022/11/28 10:46:59;;;;;;;9.50;3.45;;;7.30;99.90;;;;;;5012680;28;19909;-63
2022/11/28 10:49:46;;;;;;;6.82;3.42;;;7.20;99.90;;;;;;5018537;28;20509;-63
2022/11/28 10:52:49;;;;;;;6.25;3.22;;;7.20;99.90;;;;;;5030405;28;20025;-63
2022/11/28 10:56:00;;;;;;;9.25;4.60;;;7.20;99.90;;;;;;5022505;28;20033;-64
2022/11/28 10:58:57;;;;;;;7.15;3.72;;;7.10;99.90;;;;;;5014054;28;20031;-62
2022/11/28 11:01:28;;;;;;;11.57;4.63;;;7.20;99.90;;;;;;5002939;28;20041;-61
2022/11/28 11:03:54;;;;;;;;;;;7.20;99.90;;;;;;5013321;28;20037;-62
2022/11/28 11:06:19;;;;;;;5.95;3.15;;;7.30;99.90;;;;;;5012864;28;19917;-62
2022/11/28 11:08:46;;;;;;;6.03;3.28;;;7.30;99.90;;;;;;5016634;28;20038;-62
2022/11/28 11:11:36;;;;;;;8.05;3.42;;;7.30;99.90;;;;;;5026640;28;20079;-63
2022/11/28 11:14:09;;;;;;;8.13;3.58;;;7.20;99.90;;;;;;5021681;28;20126;-62
2022/11/28 11:16:52;;;;;;;7.72;3.78;;;7.30;99.90;;;;;;5020326;28;20030;-62
2022/11/28 11:19:32;;;;;;;9.55;4.38;;;7.30;99.90;;;;;;5017275;28;20054;-62
2022/11/28 11:22:23;;;;;;;8.70;4.30;;;7.20;99.90;;;;;;5008375;28;20037;-62
2022/11/28 11:25:19;;;;;;;9.83;3.20;;;7.20;99.90;;;;;;5006667;28;20025;-63
2022/11/28 11:27:58;;;;;;;9.40;4.53;;;7.30;99.90;;;;;;5004206;28;20688;-63
2022/11/28 11:30:38;;;;;;;8.95;4.32;;;7.30;99.90;;;;;;5006971;28;20045;-63
2022/11/28 11:33:12;;;;;;;11.75;4.65;;;7.30;99.90;;;;;;5030422;28;20026;-63
2022/11/28 11:35:48;;;;;;;7.22;3.67;;;7.30;99.90;;;;;;5023330;28;20024;-63
2022/11/28 11:38:31;;;;;;;8.57;4.00;;;7.30;99.90;;;;;;5015358;28;20037;-65
2022/11/28 11:40:57;;;;;;;16.02;4.97;;;7.40;99.90;;;;;;5015892;28;20042;-63
2022/11/28 11:43:32;;;;;;;9.43;3.55;;;7.40;99.90;;;;;;5015933;28;20022;-62
2022/11/28 11:46:12;;;;;;;7.07;3.53;;;7.30;99.90;;;;;;5020057;28;20040;-63
2022/11/28 11:48:40;;;;;;;10.73;4.13;;;7.30;99.90;;;;;;5024882;28;20037;-61
2022/11/28 11:51:25;;;;;;;13.40;4.63;;;7.30;99.90;;;;;;5019153;28;20256;-61
2022/11/28 11:54:18;;;;;;;5.63;2.97;;;7.40;99.90;;;;;;5030965;22;20049;-63
2022/11/28 11:56:47;;;;;;;6.93;3.28;;;7.40;99.90;;;;;;5010683;28;20035;-63
2022/11/28 11:59:37;;;;;;;7.18;3.65;;;7.40;99.90;;;;;;5029507;28;20497;-65
2022/11/28 12:02:20;;;;;;;8.82;4.43;;;7.40;99.90;;;;;;5028778;28;20086;-65
2022/11/28 12:04:55;;;;;;;10.48;3.58;;;7.50;99.90;;;;;;4996982;28;20095;-65
2022/11/28 12:07:35;;;;;;;6.82;3.40;;;7.40;99.90;;;;;;5016379;28;20034;-68
2022/11/28 12:10:05;;;;;;;10.90;4.97;;;7.40;99.90;;;;;;5000324;28;20687;-65
2022/11/28 12:12:37;;;;;;;8.35;4.15;;;7.40;99.90;;;;;;5002555;28;20036;-64
2022/11/28 12:15:16;;;;;;;10.68;3.55;;;7.40;99.90;;;;;;5002089;28;20030;-64
2022/11/28 12:18:05;;;;;;;13.35;5.05;;;7.40;99.90;;;;;;5005785;28;20208;-64
2022/11/28 12:20:58;;;;;;;8.13;3.53;;;7.30;99.90;;;;;;5011081;28;20084;-64
2022/11/28 12:24:01;;;;;;;9.90;3.72;;;7.40;99.90;;;;;;5013397;28;20025;-65
2022/11/28 12:26:40;;;;;;;9.80;4.45;;;7.40;99.90;;;;;;5015909;28;20052;-64
2022/11/28 12:29:27;;;;;;;14.85;4.32;;;7.50;99.90;;;;;;5018422;28;20040;-64
2022/11/28 12:32:33;;;;;;;5.88;3.33;;;7.70;99.90;;;;;;5026584;28;20038;-64
2022/11/28 12:35:36;;;;;;;11.27;4.10;;;7.70;99.90;;;;;;5016463;28;20042;-64
2022/11/28 12:38:57;;;;;;;7.80;4.13;;;7.80;99.90;;;;;;5020117;28;20042;-64
2022/11/28 12:41:37;;;;;;;5.47;3.77;;;7.80;99.90;;;;;;5014198;28;20104;-64
2022/11/28 12:44:29;;;;;;;;;;;8.00;99.90;;;;;;5018611;28;20128;-65
2022/11/28 12:47:20;;;;;;;8.43;4.23;;;7.90;99.90;;;;;;5026508;28;19916;-67
2022/11/28 12:50:16;;;;;;;12.65;3.78;;;7.90;99.90;;;;;;5018536;28;20030;-65
2022/11/28 12:53:22;;;;;;;7.53;3.88;;;7.90;99.90;;;;;;4990221;28;20073;-65
2022/11/28 12:56:37;;;;;;;6.28;3.97;;;7.80;99.90;;;;;;5015007;28;20088;-65
2022/11/28 12:59:24;;;;;;;7.78;4.75;;;7.80;99.90;;;;;;5013247;28;20501;-65
2022/11/28 13:02:08;;;;;;;7.88;4.07;;;7.80;99.90;;;;;;5006610;28;20034;-65
2022/11/28 13:05:18;;;;;;;9.50;3.95;;;7.90;99.90;;;;;;5005865;28;20034;-68
2022/11/28 13:08:20;;;;;;;9.57;4.00;;;7.90;99.90;;;;;;5001763;28;20042;-65
2022/11/28 13:11:15;;;;;;;7.57;3.85;;;8.00;99.90;;;;;;5005456;28;20037;-65
2022/11/28 13:14:21;;;;;;;9.27;4.38;;;8.10;99.90;;;;;;5005666;28;20026;-65
2022/11/28 13:16:51;;;;;;;12.18;4.32;;;8.10;99.90;;;;;;5003586;28;20065;-65
2022/11/28 13:19:40;;;;;;;9.85;4.03;;;8.00;99.90;;;;;;5002167;28;20026;-65
2022/11/28 13:22:44;;;;;;;7.78;4.03;;;8.10;99.90;;;;;;5007451;28;20034;-64
2022/11/28 13:25:28;;;;;;;4.70;2.40;;;8.20;99.90;;;;;;4994998;28;20419;-65
2022/11/28 13:28:10;;;;;;;8.50;3.88;;;8.20;99.90;;;;;;5008416;28;20034;-64
2022/11/28 13:30:50;;;;;;;6.35;3.53;;;8.30;99.90;;;;;;5016019;28;20453;-64
2022/11/28 13:33:49;;;;;;;8.27;3.80;;;8.30;99.90;;;;;;5020632;28;20030;-63
2022/11/28 13:36:52;;;;;;;6.70;4.43;;;8.50;99.90;;;;;;4990867;28;20029;-64
2022/11/28 13:39:48;;;;;;;8.13;3.65;;;8.60;99.90;;;;;;5016292;28;20022;-64
2022/11/28 13:42:44;;;;;;;9.95;3.95;;;8.70;99.90;;;;;;5028039;28;20056;-64
2022/11/28 13:45:34;;;;;;;6.80;3.28;;;8.70;99.90;;;;;;5021867;28;20120;-65
2022/11/28 13:48:38;;;;;;;6.40;3.85;;;8.70;99.90;;;;;;5009446;28;20038;-65